Granby, Colorado
Current Conditions -  °F | °C
As of 4:50 AM on Thursday 23 Oct 2014 (Local Time) from K0CO Reporting Station
Clear Clear  
Wind Chill:   Ceiling: Unl
Heat Index: 27°   Visibility: 10mi
Dew Point: 23°   Wind: 35mph
Humidity: 86%   Direction: 300°WNW
Pressure: 30.4"   Gusts: 48mph
Location:  40.09°N, 105.94°W
Report Text: K0CO 231050Z AUTO 30030G42KT 10SM CLR M03/M05 A3040 RMK AO2
Loading
Personal Weather Stations






























Interactive Weather Map
Tropical Storm Tracking
New forecast layout! Learn more

10-Day Weather Forecast

Advertisements
Track Severe Weather on mobile